Blackwood — UGGE — position and weather

sailwx.info

Track history (hours):
 
Tides and Currents Weather Stations Pressure Air Temp Water Temp Dewpoint Dewpoint Depression Visibility Wind Speed Wind Dir Waves Ship Positions

Blackwood

Last reported at 2018-Aug-12 22:12 UTC. Time now 2018-Aug-14 13:47 UTC.
Position N 45°27' E 036°42'.

Length 138 m; draft 2.8 m.

Type: Cargo ship. MMSI: 273434860.

Date/timePositionNaut miles runAvg speedWind from/ knotsBaromVisibWave heightAir tempDewpointWater temp
2018-Aug-12 22:12N 45°27' E 036°42'2 6.7
2018-Aug-12 21:54N 45°25' E 036°41'3 6.8
2018-Aug-12 21:30N 45°22' E 036°40'4 7.2
2018-Aug-12 21:00N 45°20' E 036°36'6 8.1
2018-Aug-12 20:17N 45°17' E 036°29'2 7.3
2018-Aug-12 20:00N 45°15' E 036°29'  
2018-Aug-02 23:07N 37°38' E 023°47'1 6.8
2018-Aug-02 23:01N 37°38' E 023°46'4 6.6
2018-Aug-02 22:28N 37°40' E 023°42'  
Track history (hours):
 
Tides and Currents Weather Stations Pressure Air Temp Water Temp Dewpoint Dewpoint Depression Visibility Wind Speed Wind Dir Waves Ship Positions

Blackwood

Last reported at 2018-Aug-12 22:12 UTC. Time now 2018-Aug-14 13:47 UTC.
Position N 45°27' E 036°42'.

Length 138 m; draft 2.8 m.

Type: Cargo ship. MMSI: 273434860.

Date/timePositionNaut miles runAvg speedWind from/ knotsBaromVisibWave heightAir tempDewpointWater temp
2018-Aug-12 22:12N 45°27' E 036°42'2 6.7
2018-Aug-12 21:54N 45°25' E 036°41'3 6.8
2018-Aug-12 21:30N 45°22' E 036°40'4 7.2
2018-Aug-12 21:00N 45°20' E 036°36'6 8.1
2018-Aug-12 20:17N 45°17' E 036°29'2 7.3
2018-Aug-12 20:00N 45°15' E 036°29'  
2018-Aug-02 23:07N 37°38' E 023°47'1 6.8
2018-Aug-02 23:01N 37°38' E 023°46'4 6.6
2018-Aug-02 22:28N 37°40' E 023°42'  

Dump ship's entire track history